Time;durP1;ratioP1;P1;durP2;ratioP2;P2;SDS_P1;SDS_P2;PMS_P1;PMS_P2;Temp;Humidity;BMP_temperature;BMP_pressure;BME280_temperature;BME280_humidity;BME280_pressure;Samples;Min_cycle;Max_cycle;Signal;HPM_P1;HPM_P2
2022/04/14 00:00:10;;;;;;;6.40;4.10;;;;;;;10.93;100.00;100510.75;5072207;28;20178;-85
2022/04/14 00:02:35;;;;;;;9.45;4.50;;;;;;;10.90;100.00;100509.06;5072004;28;20017;-85
2022/04/14 00:05:00;;;;;;;9.65;5.10;;;;;;;10.88;100.00;100513.56;5071765;28;20035;-83
2022/04/14 00:07:26;;;;;;;7.65;4.15;;;;;;;10.91;100.00;100512.59;5095178;22;20138;-79
2022/04/14 00:09:51;;;;;;;8.85;5.00;;;;;;;10.95;100.00;100517.81;5078171;28;20041;-79
2022/04/14 00:12:17;;;;;;;6.03;3.78;;;;;;;11.01;100.00;100524.78;5078160;28;20023;-79
2022/04/14 00:14:42;;;;;;;10.23;4.68;;;;;;;11.01;100.00;100519.44;5076790;28;20013;-79
2022/04/14 00:17:08;;;;;;;7.28;4.53;;;;;;;11.02;100.00;100512.31;5077108;28;20024;-79
2022/04/14 00:19:34;;;;;;;8.48;4.32;;;;;;;10.96;100.00;100513.34;5077184;28;20033;-79
2022/04/14 00:21:59;;;;;;;8.75;4.32;;;;;;;10.99;100.00;100507.94;5076998;28;20077;-79
2022/04/14 00:24:24;;;;;;;6.90;4.25;;;;;;;10.97;100.00;100512.44;5076931;28;20029;-79
2022/04/14 00:26:50;;;;;;;10.05;4.45;;;;;;;11.00;100.00;100507.03;5076893;28;20075;-79
2022/04/14 00:29:15;;;;;;;12.13;4.82;;;;;;;10.97;100.00;100501.75;5076876;28;20454;-79
2022/04/14 00:31:40;;;;;;;9.57;4.53;;;;;;;10.99;100.00;100505.25;5075105;28;20078;-79
2022/04/14 00:34:06;;;;;;;7.22;4.18;;;;;;;10.98;100.00;100506.16;5078118;28;20024;-79
2022/04/14 00:36:33;;;;;;;7.90;4.45;;;;;;;10.95;100.00;100496.44;5082321;28;20024;-79
2022/04/14 00:38:59;;;;;;;8.73;5.15;;;;;;;11.02;100.00;100509.63;5081221;28;20545;-80
2022/04/14 00:41:24;;;;;;;8.70;5.05;;;;;;;10.96;100.00;100505.34;5081356;28;20063;-79
2022/04/14 00:43:54;;;;;;;12.52;5.22;;;;;;;10.87;100.00;100505.59;5079219;28;20051;-79
2022/04/14 00:46:21;;;;;;;11.00;5.13;;;;;;;10.92;100.00;100514.38;5078600;28;20052;-79
2022/04/14 00:48:48;;;;;;;9.57;4.57;;;;;;;10.90;100.00;100508.19;5080315;28;20055;-79
2022/04/14 00:51:14;;;;;;;8.10;4.93;;;;;;;10.99;100.00;100505.25;5078946;28;20020;-79
2022/04/14 00:53:39;;;;;;;8.95;5.47;;;;;;;10.90;100.00;100501.03;5081352;28;20031;-79
2022/04/14 00:56:05;;;;;;;9.95;5.07;;;;;;;10.95;100.00;100500.94;5079805;28;20115;-80
2022/04/14 00:58:31;;;;;;;7.43;4.57;;;;;;;10.84;100.00;100501.22;5080653;28;20024;-80
2022/04/14 01:00:56;;;;;;;10.50;5.63;;;;;;;10.72;100.00;100508.66;5079878;28;20028;-80
2022/04/14 01:03:22;;;;;;;9.10;5.93;;;;;;;10.73;100.00;100504.19;5080273;28;20107;-80
2022/04/14 01:05:48;;;;;;;10.35;6.05;;;;;;;10.82;100.00;100501.25;5083251;28;20458;-79
2022/04/14 01:08:20;;;;;;;11.82;6.47;;;;;;;10.75;100.00;100513.03;5076240;28;20025;-79
2022/04/14 01:10:47;;;;;;;9.75;6.03;;;;;;;10.73;100.00;100506.84;5076008;28;20105;-79
2022/04/14 01:13:17;;;;;;;12.88;6.18;;;;;;;10.71;100.00;100511.38;5078662;28;20442;-79
2022/04/14 01:15:46;;;;;;;10.00;6.88;;;;;;;10.73;100.00;100515.75;5079679;28;20020;-80
2022/04/14 01:18:12;;;;;;;10.80;6.90;;;;;;;10.65;100.00;100517.75;5080302;28;20020;-79
2022/04/14 01:20:39;;;;;;;11.68;6.93;;;;;;;10.65;100.00;100511.53;5078848;28;20094;-79
2022/04/14 01:23:08;;;;;;;12.45;7.30;;;;;;;10.61;100.00;100514.28;5075067;28;20024;-79
2022/04/14 01:25:35;;;;;;;14.70;7.15;;;;;;;10.60;100.00;100515.19;5075872;28;20020;-79
2022/04/14 01:28:04;;;;;;;12.38;7.70;;;;;;;10.68;100.00;100509.66;5077412;28;20070;-79
2022/04/14 01:30:30;;;;;;;11.45;7.13;;;;;;;10.65;100.00;100511.53;5077638;28;20032;-79
2022/04/14 01:32:56;;;;;;;12.88;7.32;;;;;;;10.65;100.00;100511.53;5075729;28;20031;-79
2022/04/14 01:35:22;;;;;;;10.35;7.13;;;;;;;10.64;100.00;100507.13;5076857;28;20032;-79
2022/04/14 01:37:48;;;;;;;11.63;6.85;;;;;;;10.61;100.00;100506.28;5076962;28;20042;-79
2022/04/14 01:40:14;;;;;;;12.77;7.30;;;;;;;10.56;100.00;100510.88;5076549;28;20369;-79
2022/04/14 01:42:39;;;;;;;11.73;7.22;;;;;;;10.53;100.00;100502.94;5076703;28;20481;-79
2022/04/14 01:45:10;;;;;;;12.20;7.28;;;;;;;10.50;100.00;100502.97;5076234;28;20416;-79
2022/04/14 01:47:44;;;;;;;11.70;7.22;;;;;;;10.47;100.00;100509.28;5074915;28;20112;-79
2022/04/14 01:50:13;;;;;;;10.35;6.78;;;;;;;10.54;100.00;100510.00;5075215;28;20028;-79
2022/04/14 01:52:40;;;;;;;10.25;7.05;;;;;;;10.54;100.00;100511.81;5080797;28;20111;-79
2022/04/14 01:55:06;;;;;;;11.32;6.82;;;;;;;10.45;100.00;100512.91;5080135;28;20020;-80
2022/04/14 01:57:32;;;;;;;10.85;6.30;;;;;;;10.38;100.00;100510.41;5081270;28;20051;-79
2022/04/14 01:59:59;;;;;;;9.23;5.93;;;;;;;10.38;100.00;100504.19;5079380;28;20462;-79
2022/04/14 02:02:24;;;;;;;9.68;6.35;;;;;;;10.37;100.00;100505.97;5081295;28;20024;-79
2022/04/14 02:04:51;;;;;;;8.57;6.35;;;;;;;10.37;100.00;100518.44;5082407;28;20025;-79
2022/04/14 02:07:17;;;;;;;12.20;6.38;;;;;;;10.42;100.00;100520.97;5080961;28;20500;-79
2022/04/14 02:09:42;;;;;;;8.40;5.55;;;;;;;10.37;100.00;100513.97;5080878;28;20029;-79
2022/04/14 02:12:09;;;;;;;9.75;5.53;;;;;;;10.37;100.00;100516.66;5077186;28;20055;-79
2022/04/14 02:14:34;;;;;;;9.30;5.90;;;;;;;10.37;100.00;100507.75;5078077;28;20020;-79
2022/04/14 02:16:59;;;;;;;9.15;5.15;;;;;;;10.39;100.00;100488.13;5076139;28;20024;-79
2022/04/14 02:19:25;;;;;;;8.43;4.55;;;;;;;10.33;100.00;100496.31;5075297;28;20382;-79
2022/04/14 02:21:50;;;;;;;9.27;4.68;;;;;;;10.27;100.00;100492.00;5075022;28;20409;-79
2022/04/14 02:24:15;;;;;;;8.68;4.85;;;;;;;10.30;100.00;100491.03;5074800;28;20032;-79
2022/04/14 02:26:41;;;;;;;10.48;4.10;;;;;;;10.30;100.00;100491.03;5074607;28;20020;-79
2022/04/14 02:29:06;;;;;;;5.88;4.00;;;;;;;10.31;100.00;100502.59;5080090;28;20028;-80
2022/04/14 02:31:31;;;;;;;5.50;3.88;;;;;;;10.26;100.00;100497.34;5081101;28;20071;-80
2022/04/14 02:33:56;;;;;;;5.68;3.75;;;;;;;10.25;100.00;100498.28;5081595;28;20111;-79
2022/04/14 02:36:23;;;;;;;5.63;3.78;;;;;;;10.26;100.00;100490.22;5077961;28;20031;-79
2022/04/14 02:38:49;;;;;;;7.55;3.53;;;;;;;10.30;100.00;100477.69;5078496;28;20050;-79
2022/04/14 02:41:14;;;;;;;5.78;3.45;;;;;;;10.26;100.00;100486.66;5079311;28;20021;-79
2022/04/14 02:43:39;;;;;;;7.47;3.70;;;;;;;10.22;100.00;100493.00;5076547;28;20035;-79
2022/04/14 02:46:05;;;;;;;7.10;3.42;;;;;;;10.26;100.00;100498.22;5077471;28;20052;-79
2022/04/14 02:48:31;;;;;;;4.80;3.42;;;;;;;10.26;100.00;100500.00;5075896;28;20031;-80
2022/04/14 02:50:57;;;;;;;7.20;3.55;;;;;;;10.21;100.00;100496.59;5077283;28;20084;-79
2022/04/14 02:53:22;;;;;;;7.50;3.55;;;;;;;10.16;100.00;100486.03;5077820;28;20059;-79
2022/04/14 02:55:47;;;;;;;7.20;3.40;;;;;;;10.10;100.00;100468.38;5077444;28;20029;-80
2022/04/14 02:58:13;;;;;;;6.25;3.40;;;;;;;10.04;100.00;100461.44;5077870;28;20027;-79
2022/04/14 03:00:39;;;;;;;8.68;3.40;;;;;;;10.08;100.00;100467.53;5078223;28;20436;-79
2022/04/14 03:03:04;;;;;;;7.93;3.42;;;;;;;10.06;100.00;100466.72;5078190;28;20020;-79
2022/04/14 03:05:29;;;;;;;6.50;3.28;;;;;;;10.01;100.00;100460.63;5075030;28;20079;-79
2022/04/14 03:07:55;;;;;;;6.10;3.88;;;;;;;9.99;100.00;100454.44;5078603;28;20032;-80
2022/04/14 03:10:20;;;;;;;10.85;4.00;;;;;;;9.97;100.00;100459.84;5079271;28;20048;-79
2022/04/14 03:12:46;;;;;;;5.53;3.65;;;;;;;9.98;100.00;100458.00;5077189;28;20069;-79
2022/04/14 03:15:13;;;;;;;5.38;3.15;;;;;;;9.94;100.00;100458.13;5076652;28;20164;-79
2022/04/14 03:17:39;;;;;;;7.35;3.78;;;;;;;9.87;100.00;100450.31;5076793;28;20021;-79
2022/04/14 03:20:05;;;;;;;4.97;3.58;;;;;;;9.85;100.00;100450.31;5077315;28;20028;-79
2022/04/14 03:22:34;;;;;;;6.22;3.05;;;;;;;9.86;100.00;100473.44;5075284;28;20047;-78
2022/04/14 03:25:05;;;;;;;8.73;3.05;;;;;;;9.86;100.00;100464.53;5074712;28;20028;-78
2022/04/14 03:27:30;;;;;;;5.55;2.75;;;;;;;9.79;100.00;100463.81;5074636;28;20169;-78
2022/04/14 03:29:56;;;;;;;5.15;2.85;;;;;;;9.78;100.00;100467.38;5074646;28;20052;-78
2022/04/14 03:32:22;;;;;;;6.72;3.20;;;;;;;9.76;100.00;100459.44;5074242;28;20035;-78
2022/04/14 03:34:48;;;;;;;5.63;2.67;;;;;;;9.72;100.00;100453.28;5072588;28;20028;-78
2022/04/14 03:37:13;;;;;;;5.32;2.85;;;;;;;9.70;100.00;100457.78;5074111;28;20035;-79
2022/04/14 03:39:38;;;;;;;5.97;2.40;;;;;;;9.68;100.00;100446.28;5073469;28;20020;-78
2022/04/14 03:42:04;;;;;;;6.22;2.70;;;;;;;9.65;100.00;100435.69;5072147;28;20440;-78
2022/04/14 03:44:29;;;;;;;7.80;3.08;;;;;;;9.66;100.00;100456.13;5079038;28;20048;-79
2022/04/14 03:46:55;;;;;;;6.90;3.20;;;;;;;9.64;100.00;100465.06;5077374;28;20104;-79
2022/04/14 03:49:20;;;;;;;6.43;2.80;;;;;;;9.63;100.00;100464.19;5072993;28;20017;-78
2022/04/14 03:51:45;;;;;;;5.60;3.17;;;;;;;9.63;100.00;100450.84;5072506;28;20036;-78
2022/04/14 03:54:11;;;;;;;4.28;2.60;;;;;;;9.67;100.00;100454.31;5073654;28;20452;-78
2022/04/14 03:56:36;;;;;;;5.40;3.35;;;;;;;9.64;100.00;100447.25;5072279;28;20024;-78
2022/04/14 03:59:01;;;;;;;4.32;2.80;;;;;;;9.64;100.00;100439.25;5073440;28;20099;-78
2022/04/14 04:01:27;;;;;;;5.75;2.70;;;;;;;9.63;100.00;100448.19;5072031;28;20025;-78
2022/04/14 04:03:52;;;;;;;5.65;2.83;;;;;;;9.63;100.00;100442.84;5071860;28;20032;-78
2022/04/14 04:06:17;;;;;;;5.43;2.90;;;;;;;9.63;100.00;100453.53;5071951;28;20020;-78
2022/04/14 04:08:42;;;;;;;7.07;2.97;;;;;;;9.66;100.00;100448.13;5073038;28;20028;-78
2022/04/14 04:11:08;;;;;;;5.68;2.88;;;;;;;9.66;100.00;100457.91;5072770;28;20017;-78
2022/04/14 04:13:33;;;;;;;6.20;2.90;;;;;;;9.71;100.00;100464.00;5073132;28;20047;-78
2022/04/14 04:15:58;;;;;;;6.32;3.42;;;;;;;9.69;100.00;100469.34;5072764;28;20048;-78
2022/04/14 04:18:23;;;;;;;7.50;3.08;;;;;;;9.68;100.00;100472.94;5072948;28;20025;-78
2022/04/14 04:20:49;;;;;;;6.53;3.35;;;;;;;9.70;100.00;100479.13;5073870;28;20128;-78
2022/04/14 04:23:14;;;;;;;5.72;3.33;;;;;;;9.71;100.00;100488.00;5074564;28;20025;-79
2022/04/14 04:25:40;;;;;;;6.65;3.40;;;;;;;9.86;100.00;100491.22;5074429;28;20025;-78
2022/04/14 04:28:06;;;;;;;7.30;3.83;;;;;;;9.74;100.00;100485.25;5073519;28;20028;-80
2022/04/14 04:30:31;;;;;;;6.63;3.75;;;;;;;9.70;100.00;100486.22;5075054;28;20495;-79
2022/04/14 04:32:57;;;;;;;7.97;3.70;;;;;;;9.72;100.00;100482.63;5075845;28;20451;-80
2022/04/14 04:35:22;;;;;;;9.73;4.03;;;;;;;9.74;100.00;100487.06;5073907;28;20434;-78
2022/04/14 04:37:47;;;;;;;6.63;4.30;;;;;;;9.80;100.00;100487.78;5074215;28;20024;-77
2022/04/14 04:40:12;;;;;;;7.43;4.28;;;;;;;9.74;100.00;100485.25;5072994;28;20024;-77
2022/04/14 04:42:38;;;;;;;6.90;4.38;;;;;;;9.70;100.00;100481.78;5073587;28;20028;-78
2022/04/14 04:45:04;;;;;;;8.05;4.63;;;;;;;9.70;100.00;100492.44;5074945;28;20466;-78
2022/04/14 04:47:29;;;;;;;12.20;4.78;;;;;;;9.70;100.00;100487.13;5076842;28;20036;-77
2022/04/14 04:49:54;;;;;;;7.40;4.95;;;;;;;9.76;100.00;100503.88;5076553;28;20462;-78
2022/04/14 04:52:20;;;;;;;9.27;5.40;;;;;;;9.70;100.00;100507.56;5077093;28;20119;-78
2022/04/14 04:54:45;;;;;;;10.05;5.55;;;;;;;9.86;100.00;100512.53;5079065;28;20025;-78
2022/04/14 04:57:11;;;;;;;10.88;6.25;;;;;;;9.77;100.00;100511.84;5084676;28;20076;-78
2022/04/14 04:59:36;;;;;;;11.60;6.65;;;;;;;9.78;100.00;100505.59;5099452;28;20098;-78
2022/04/14 05:02:02;;;;;;;10.38;6.07;;;;;;;9.76;100.00;100509.22;5082976;28;20465;-78
2022/04/14 05:04:27;;;;;;;11.95;5.90;;;;;;;9.75;100.00;100510.13;5082682;28;20020;-79
2022/04/14 05:06:52;;;;;;;11.77;5.75;;;;;;;9.76;100.00;100518.09;5084704;28;20024;-79
2022/04/14 05:09:18;;;;;;;11.13;5.95;;;;;;;9.81;100.00;100520.66;5085195;28;20478;-79
2022/04/14 05:11:43;;;;;;;14.50;6.93;;;;;;;9.80;100.00;100519.78;5085728;28;20048;-79
2022/04/14 05:14:09;;;;;;;12.40;7.22;;;;;;;9.80;100.00;100524.22;5083663;28;20028;-80
2022/04/14 05:16:35;;;;;;;14.55;8.10;;;;;;;9.80;100.00;100526.91;5084171;28;20078;-80
2022/04/14 05:19:00;;;;;;;14.98;7.50;;;;;;;9.82;100.00;100530.41;5082598;28;20028;-80
2022/04/14 05:21:26;;;;;;;13.90;7.75;;;;;;;9.82;100.00;100533.06;5083392;28;20362;-80
2022/04/14 05:23:51;;;;;;;14.70;8.55;;;;;;;9.83;100.00;100518.84;5085379;28;20021;-80
2022/04/14 05:26:17;;;;;;;18.77;8.93;;;;;;;9.83;100.00;100532.16;5086617;28;20036;-80
2022/04/14 05:28:42;;;;;;;17.08;8.57;;;;;;;9.86;100.00;100534.78;5086645;28;20062;-80
2022/04/14 05:31:07;;;;;;;15.13;8.57;;;;;;;9.84;100.00;100531.25;5085919;28;20111;-80
2022/04/14 05:33:33;;;;;;;18.50;8.52;;;;;;;9.87;100.00;100541.84;5087074;28;20032;-81
2022/04/14 05:35:58;;;;;;;16.13;8.80;;;;;;;9.87;100.00;100544.50;5077789;28;20021;-80
2022/04/14 05:38:24;;;;;;;17.77;9.27;;;;;;;9.86;100.00;100542.78;5085340;28;20084;-80
2022/04/14 05:40:49;;;;;;;14.10;9.07;;;;;;;9.89;100.00;100544.50;5085437;28;20028;-80
2022/04/14 05:43:18;;;;;;;19.98;9.18;;;;;;;9.85;100.00;100549.00;5085620;28;20028;-80
2022/04/14 05:45:47;;;;;;;18.17;9.35;;;;;;;9.84;100.00;100541.94;5086843;28;20028;-80
2022/04/14 05:48:13;;;;;;;13.98;8.82;;;;;;;9.84;100.00;100547.28;5085495;28;20021;-81
2022/04/14 05:50:39;;;;;;;18.67;10.38;;;;;;;9.89;100.00;100549.81;5086880;28;20099;-80
2022/04/14 05:53:05;;;;;;;18.58;10.98;;;;;;;9.87;100.00;100557.84;5085362;28;20040;-80
2022/04/14 05:55:30;;;;;;;23.05;11.68;;;;;;;9.91;100.00;100546.22;5085230;28;20047;-80
2022/04/14 05:57:55;;;;;;;25.55;12.70;;;;;;;9.92;100.00;100550.63;5084259;28;20024;-80
2022/04/14 06:00:21;;;;;;;28.80;13.30;;;;;;;9.93;100.00;100551.50;5085551;28;20381;-80
2022/04/14 06:02:46;;;;;;;26.90;13.85;;;;;;;9.98;100.00;100548.72;5084336;28;20024;-80
2022/04/14 06:05:12;;;;;;;30.35;14.13;;;;;;;10.02;100.00;100547.75;5084154;28;20017;-80
2022/04/14 06:10:05;;;;;;;30.75;15.23;;;;;;;10.05;100.00;100550.34;5059150;28;20464;-77
2022/04/14 06:12:30;;;;;;;26.42;14.10;;;;;;;10.05;100.00;100555.69;5061377;28;20029;-78
2022/04/14 06:14:55;;;;;;;25.95;13.85;;;;;;;10.06;100.00;100552.09;5060484;28;20111;-79
2022/04/14 06:17:21;;;;;;;26.35;13.38;;;;;;;10.12;100.00;100546.63;5059538;28;20154;-78
2022/04/14 06:19:46;;;;;;;30.80;14.88;;;;;;;10.13;100.00;100559.03;5039764;28;20056;-79
2022/04/14 06:22:11;;;;;;;28.35;14.07;;;;;;;10.13;100.00;100552.81;5040489;28;20147;-79
2022/04/14 06:24:37;;;;;;;27.83;14.45;;;;;;;10.14;100.00;100565.25;5040522;28;20033;-79
2022/04/14 06:27:02;;;;;;;30.88;13.95;;;;;;;10.18;100.00;100566.91;5040734;28;20104;-78
2022/04/14 06:29:28;;;;;;;32.58;14.38;;;;;;;10.21;100.00;100561.50;5040810;28;20477;-78
2022/04/14 06:31:53;;;;;;;33.88;15.73;;;;;;;10.28;100.00;100562.25;5041174;28;20033;-78
2022/04/14 06:34:18;;;;;;;29.85;15.05;;;;;;;10.27;100.00;100566.72;5059453;28;20025;-77
2022/04/14 06:36:43;;;;;;;28.52;15.13;;;;;;;10.31;100.00;100567.50;5059656;28;20393;-78
2022/04/14 06:39:12;;;;;;;31.25;15.77;;;;;;;10.30;100.00;100573.78;5059521;28;20032;-77
2022/04/14 06:41:39;;;;;;;30.98;15.75;;;;;;;10.32;100.00;100558.59;5042162;28;20025;-79
2022/04/14 06:44:05;;;;;;;34.33;16.33;;;;;;;10.38;100.00;100562.91;5041859;28;20074;-78
2022/04/14 06:46:30;;;;;;;33.08;17.17;;;;;;;10.44;100.00;100562.75;5059105;28;20111;-77
2022/04/14 06:48:56;;;;;;;40.45;17.27;;;;;;;10.49;100.00;100560.81;5058849;28;20029;-79
2022/04/14 06:51:21;;;;;;;35.42;18.23;;;;;;;10.54;100.00;100566.06;5058051;28;20163;-77
2022/04/14 06:53:48;;;;;;;42.25;19.40;;;;;;;10.51;100.00;100566.19;5040330;28;20032;-79
2022/04/14 06:56:13;;;;;;;38.78;19.65;;;;;;;10.58;100.00;100569.56;5040285;28;20101;-78
2022/04/14 06:58:39;;;;;;;46.58;20.92;;;;;;;10.64;100.00;100568.53;5058589;28;20478;-78
2022/04/14 07:01:04;;;;;;;50.53;20.98;;;;;;;10.66;100.00;100566.69;5057566;28;20037;-78
2022/04/14 07:03:29;;;;;;;43.10;19.70;;;;;;;10.71;100.00;100565.66;5056510;28;20047;-79
2022/04/14 07:05:56;;;;;;;49.65;21.70;;;;;;;10.72;100.00;100575.41;5056942;28;20465;-77
2022/04/14 07:08:25;;;;;;;54.17;24.05;;;;;;;10.80;100.00;100575.22;5039006;28;20029;-79
2022/04/14 07:10:53;;;;;;;57.60;25.27;;;;;;;10.85;100.00;100567.06;5057800;28;20033;-78
2022/04/14 07:13:19;;;;;;;56.22;23.83;;;;;;;10.87;100.00;100567.94;5039696;28;20453;-78
2022/04/14 07:15:44;;;;;;;56.22;25.67;;;;;;;10.94;100.00;100557.94;5039328;28;20025;-77
2022/04/14 07:18:10;;;;;;;62.83;28.15;;;;;;;11.03;100.00;100565.69;5056990;28;20036;-79
2022/04/14 07:20:35;;;;;;;67.35;28.52;;;;;;;10.95;100.00;100568.56;5058027;28;20057;-79
2022/04/14 07:23:02;;;;;;;61.83;27.42;;;;;;;11.06;100.00;100573.63;5056163;28;20021;-78
2022/04/14 07:25:30;;;;;;;67.93;29.10;;;;;;;11.15;100.00;100574.31;5038271;28;20013;-78
2022/04/14 07:27:56;;;;;;;72.35;28.67;;;;;;;11.20;100.00;100572.38;5038441;28;20051;-78
2022/04/14 07:30:23;;;;;;;64.50;28.20;;;;;;;11.20;100.00;100575.06;5038101;28;20025;-79
2022/04/14 07:32:49;;;;;;;69.95;29.88;;;;;;;11.16;100.00;100560.00;5056105;28;20024;-77
2022/04/14 07:35:14;;;;;;;67.55;30.17;;;;;;;11.16;100.00;100568.03;5038326;28;20021;-77
2022/04/14 07:37:40;;;;;;;69.78;30.20;;;;;;;11.12;100.00;100577.06;5056065;28;20041;-78
2022/04/14 07:40:06;;;;;;;68.78;30.63;;;;;;;11.19;100.00;100575.97;5055757;28;20025;-77
2022/04/14 07:42:37;;;;;;;67.47;29.17;;;;;;;11.23;100.00;100577.66;5037875;28;20497;-78
2022/04/14 07:45:03;;;;;;;66.22;29.13;;;;;;;11.24;100.00;100574.03;5055862;28;20021;-80
2022/04/14 07:47:29;;;;;;;66.50;29.88;;;;;;;11.27;100.00;100573.06;5038308;28;20101;-78
2022/04/14 07:49:54;;;;;;;62.35;28.60;;;;;;;11.29;100.00;100582.81;5038981;28;20480;-78
2022/04/14 07:52:19;;;;;;;68.03;30.88;;;;;;;11.34;100.00;100580.00;5055852;28;20039;-78
2022/04/14 07:54:45;;;;;;;66.65;30.75;;;;;;;11.47;100.00;100585.88;5056148;28;20028;-78
2022/04/14 07:57:11;;;;;;;73.18;31.95;;;;;;;11.57;100.00;100581.13;5055736;28;20108;-77
2022/04/14 07:59:36;;;;;;;67.78;31.58;;;;;;;11.51;100.00;100574.19;5055438;28;20548;-78
2022/04/14 08:02:01;;;;;;;74.32;33.05;;;;;;;11.64;100.00;100567.59;5038049;28;20033;-77
2022/04/14 08:04:27;;;;;;;77.18;34.20;;;;;;;11.73;100.00;100575.31;5055470;28;20039;-78
2022/04/14 08:06:53;;;;;;;77.03;34.97;;;;;;;11.87;100.00;100577.59;5037601;28;20101;-78
2022/04/14 08:09:19;;;;;;;74.75;34.55;;;;;;;11.96;100.00;100581.75;5037411;28;20436;-79
2022/04/14 08:11:45;;;;;;;77.50;35.20;;;;;;;12.19;100.00;100572.16;5055167;28;20075;-77
2022/04/14 08:14:11;;;;;;;68.43;33.78;;;;;;;12.26;100.00;100576.41;5038181;28;20017;-77
2022/04/14 08:16:36;;;;;;;69.75;33.08;;;;;;;12.29;100.00;100578.09;5037461;28;20363;-77
2022/04/14 08:19:02;;;;;;;68.35;33.38;;;;;;;12.29;100.00;100570.06;5055336;28;20028;-78
2022/04/14 08:21:27;;;;;;;74.07;34.58;;;;;;;12.50;100.00;100565.78;5038457;28;20573;-78
2022/04/14 08:23:53;;;;;;;76.07;35.63;;;;;;;12.47;100.00;100567.72;5055548;28;20029;-78
2022/04/14 08:26:19;;;;;;;64.07;32.60;;;;;;;12.47;100.00;100565.88;5037925;28;20058;-79
2022/04/14 08:28:46;;;;;;;65.38;33.80;;;;;;;12.31;100.00;100568.22;5055896;28;20025;-78
2022/04/14 08:31:12;;;;;;;63.83;32.30;;;;;;;12.38;100.00;100571.56;5041418;28;20388;-77
2022/04/14 08:33:38;;;;;;;65.20;32.35;;;;;;;12.40;100.00;100580.41;5041458;28;20116;-77
2022/04/14 08:36:04;;;;;;;59.75;31.67;;;;;;;12.33;100.00;100585.09;5058698;28;20090;-78
2022/04/14 08:38:30;;;;;;;55.78;30.17;;;;;;;12.26;100.00;100586.22;5058442;28;20029;-77
2022/04/14 08:41:02;;;;;;;63.10;31.80;;;;;;;12.29;100.00;100592.34;5040936;28;20029;-78
2022/04/14 08:43:33;;;;;;;58.63;30.58;;;;;;;12.49;100.00;100587.28;5060019;28;20029;-79
2022/04/14 08:45:59;;;;;;;58.28;30.25;;;;;;;12.38;100.00;100587.63;5041592;28;20040;-78
2022/04/14 08:48:26;;;;;;;61.08;31.83;;;;;;;12.49;100.00;100585.47;5058846;28;20025;-78
2022/04/14 08:50:52;;;;;;;57.65;29.80;;;;;;;12.46;100.00;100595.41;5058349;28;20032;-78
2022/04/14 08:53:18;;;;;;;59.35;31.48;;;;;;;12.55;100.00;100581.69;5041124;28;20021;-79
2022/04/14 08:55:44;;;;;;;63.53;32.22;;;;;;;12.58;100.00;100584.28;5040821;28;20033;-79
2022/04/14 08:58:13;;;;;;;60.10;31.08;;;;;;;12.63;100.00;100581.44;5041333;28;20021;-78
2022/04/14 09:00:39;;;;;;;54.38;29.38;;;;;;;12.54;100.00;100593.34;5058478;28;20045;-78
2022/04/14 09:03:05;;;;;;;52.72;28.30;;;;;;;12.54;100.00;100588.00;5058498;28;20386;-78
2022/04/14 09:05:30;;;;;;;47.00;27.13;;;;;;;12.50;100.00;100597.03;5041484;28;20031;-78
2022/04/14 09:07:55;;;;;;;60.20;30.52;;;;;;;12.55;100.00;100592.41;5059779;28;20067;-79
2022/04/14 09:10:21;;;;;;;54.17;29.98;;;;;;;12.50;100.00;100589.88;5041519;28;20393;-78
2022/04/14 09:12:48;;;;;;;52.05;28.15;;;;;;;12.47;100.00;100597.16;5041782;28;20393;-78
2022/04/14 09:15:15;;;;;;;51.13;28.10;;;;;;;12.25;100.00;100592.50;5040001;28;20111;-78
2022/04/14 09:17:40;;;;;;;52.08;27.98;;;;;;;12.20;100.00;100591.78;5039550;28;20029;-78
2022/04/14 09:20:37;;;;;;;47.15;28.77;;;;;;;12.29;100.00;100596.84;5039272;28;20528;-79
2022/04/14 09:23:09;;;;;;;59.90;31.73;;;;;;;12.70;100.00;100592.84;5039279;28;20512;-78
2022/04/14 09:25:35;;;;;;;52.05;29.63;;;;;;;13.02;100.00;100587.25;5056917;28;20108;-79
2022/04/14 09:28:10;;;;;;;48.83;27.42;;;;;;;13.44;100.00;100592.94;5056486;28;20068;-78
2022/04/14 09:30:35;;;;;;;47.47;26.77;;;;;;;13.56;100.00;100592.47;5038755;28;20398;-78
2022/04/14 09:33:02;;;;;;;40.22;24.30;;;;;;;13.54;100.00;100593.47;5038877;28;20025;-78
2022/04/14 09:35:31;;;;;;;46.17;25.08;;;;;;;14.03;100.00;100581.78;5056559;28;20017;-79
2022/04/14 09:38:02;;;;;;;47.40;25.15;;;;;;;14.04;100.00;100587.13;5039321;28;20021;-78
2022/04/14 09:40:35;;;;;;;47.00;24.95;;;;;;;14.19;100.00;100585.63;5039619;28;20017;-79
2022/04/14 09:43:00;;;;;;;37.85;21.88;;;;;;;14.36;100.00;100585.84;5058217;28;20488;-78
2022/04/14 09:45:28;;;;;;;40.47;22.92;;;;;;;14.46;100.00;100586.34;5059137;28;20076;-78
2022/04/14 09:47:54;;;;;;;39.88;22.80;;;;;;;14.87;100.00;100584.69;5040901;28;20035;-78
2022/04/14 09:50:32;;;;;;;43.47;24.10;;;;;;;14.97;100.00;100594.94;5058033;28;20029;-78
2022/04/14 09:52:57;;;;;;;36.00;21.52;;;;;;;14.88;100.00;100591.78;5040316;28;20127;-78
2022/04/14 09:55:22;;;;;;;40.78;23.30;;;;;;;14.83;100.00;100586.59;5057401;28;20032;-78
2022/04/14 09:58:04;;;;;;;43.55;23.55;;;;;;;15.06;100.00;100596.38;5057585;28;20021;-78
2022/04/14 10:00:41;;;;;;;38.92;23.20;;;;;;;15.08;100.00;100578.34;5039351;28;20024;-78
2022/04/14 10:03:27;;;;;;;37.17;21.90;;;;;;;15.60;100.00;100586.81;5039583;28;20390;-78
2022/04/14 10:06:14;;;;;;;37.80;19.98;;;;;;;15.75;100.00;100578.94;5037248;28;20115;-78
2022/04/14 10:08:57;;;;;;;36.38;20.45;;;;;;;15.82;100.00;100593.88;5056502;28;20047;-78
2022/04/14 10:11:29;;;;;;;33.45;18.27;;;;;;;15.70;99.72;100584.56;5056005;28;20021;-78
2022/04/14 10:14:08;;;;;;;34.80;18.27;;;;;;;15.91;100.00;100581.78;5038212;28;20023;-78
2022/04/14 10:16:34;;;;;;;31.17;18.67;;;;;;;15.57;99.85;100583.38;5055797;28;20044;-78
2022/04/14 10:19:02;;;;;;;33.40;19.65;;;;;;;15.32;100.00;100579.13;5038462;28;20021;-78
2022/04/14 10:21:27;;;;;;;31.33;17.98;;;;;;;16.00;99.88;100574.22;5057788;28;20035;-78
2022/04/14 10:23:53;;;;;;;26.08;16.30;;;;;;;16.34;95.61;100577.97;5056958;28;20025;-78
2022/04/14 10:26:20;;;;;;;28.52;15.82;;;;;;;16.18;96.84;100584.09;5038670;28;20505;-78
2022/04/14 10:28:46;;;;;;;28.92;16.77;;;;;;;16.50;96.90;100578.06;5056811;28;20025;-78
2022/04/14 10:31:12;;;;;;;28.98;17.17;;;;;;;16.29;93.32;100574.63;5039230;28;20028;-78
2022/04/14 10:33:38;;;;;;;31.38;17.60;;;;;;;16.77;99.34;100576.75;5038247;28;20032;-79
2022/04/14 10:36:03;;;;;;;27.73;15.98;;;;;;;16.36;98.92;100565.31;5055890;28;20021;-78
2022/04/14 10:38:35;;;;;;;30.05;16.83;;;;;;;16.48;94.20;100568.31;5037800;28;20028;-78
2022/04/14 10:41:06;;;;;;;26.88;16.50;;;;;;;16.88;96.98;100570.78;5055850;28;20051;-78
2022/04/14 10:43:34;;;;;;;22.63;15.05;;;;;;;16.58;92.92;100568.72;5037465;28;20030;-79
2022/04/14 10:46:00;;;;;;;29.15;15.98;;;;;;;15.75;96.06;100566.38;5038867;28;20524;-78
2022/04/14 10:48:40;;;;;;;24.45;14.32;;;;;;;15.94;95.04;100567.31;5039235;28;20021;-79
2022/04/14 10:51:23;;;;;;;28.73;15.90;;;;;;;16.70;96.62;100561.84;5039041;28;20116;-79
2022/04/14 10:54:00;;;;;;;25.17;15.25;;;;;;;16.43;95.26;100555.09;5038983;28;20390;-78
2022/04/14 10:56:34;;;;;;;26.58;15.57;;;;;;;16.82;94.20;100563.91;5056519;28;20115;-79
2022/04/14 10:59:12;;;;;;;30.63;16.85;;;;;;;17.01;92.94;100560.22;5057435;28;20078;-77
2022/04/14 11:01:47;;;;;;;28.00;15.38;;;;;;;17.41;96.06;100550.97;5038684;28;20028;-78
2022/04/14 11:04:24;;;;;;;25.73;13.10;;;;;;;17.05;85.40;100560.94;5038642;28;20052;-77
2022/04/14 11:06:52;;;;;;;24.50;14.15;;;;;;;17.48;84.93;100557.78;5039952;28;20406;-78
2022/04/14 11:09:42;;;;;;;25.50;14.05;;;;;;;17.27;87.07;100554.41;5037990;28;20116;-78
2022/04/14 11:12:08;;;;;;;25.10;13.60;;;;;;;17.51;88.25;100551.34;5040032;28;20485;-78